sensor_id;sensor_type;location;lat;lon;timestamp;P1;durP1;ratioP1;P2;durP2;ratioP2
70818;SDS011;58439;51.046;13.692;2023-03-14T00:06:30;4.88;;;1.65;;
70818;SDS011;58439;51.046;13.692;2023-03-14T00:17:29;3.60;;;2.03;;
70818;SDS011;58439;51.046;13.692;2023-03-14T00:20:45;5.10;;;2.10;;
70818;SDS011;58439;51.046;13.692;2023-03-14T00:23:35;4.75;;;2.28;;
70818;SDS011;58439;51.046;13.692;2023-03-14T00:26:12;4.95;;;2.10;;
70818;SDS011;58439;51.046;13.692;2023-03-14T00:28:43;5.38;;;2.58;;
70818;SDS011;58439;51.046;13.692;2023-03-14T00:31:13;7.32;;;2.55;;
70818;SDS011;58439;51.046;13.692;2023-03-14T00:33:47;5.22;;;2.35;;
70818;SDS011;58439;51.046;13.692;2023-03-14T00:36:17;6.00;;;2.42;;
70818;SDS011;58439;51.046;13.692;2023-03-14T00:38:47;8.07;;;2.40;;
70818;SDS011;58439;51.046;13.692;2023-03-14T00:41:20;6.50;;;3.10;;
70818;SDS011;58439;51.046;13.692;2023-03-14T00:43:50;5.97;;;2.72;;
70818;SDS011;58439;51.046;13.692;2023-03-14T00:49:15;7.15;;;2.95;;
70818;SDS011;58439;51.046;13.692;2023-03-14T00:51:43;7.07;;;2.60;;
70818;SDS011;58439;51.046;13.692;2023-03-14T00:54:11;7.95;;;2.85;;
70818;SDS011;58439;51.046;13.692;2023-03-14T00:56:38;6.72;;;3.42;;
70818;SDS011;58439;51.046;13.692;2023-03-14T00:59:06;7.13;;;3.40;;
70818;SDS011;58439;51.046;13.692;2023-03-14T01:01:35;5.10;;;2.80;;
70818;SDS011;58439;51.046;13.692;2023-03-14T01:04:11;8.77;;;3.28;;
70818;SDS011;58439;51.046;13.692;2023-03-14T01:06:39;5.95;;;3.05;;
70818;SDS011;58439;51.046;13.692;2023-03-14T01:09:09;9.18;;;3.42;;
70818;SDS011;58439;51.046;13.692;2023-03-14T01:11:37;5.35;;;2.80;;
70818;SDS011;58439;51.046;13.692;2023-03-14T01:14:05;4.53;;;2.70;;
70818;SDS011;58439;51.046;13.692;2023-03-14T01:16:34;4.45;;;2.50;;
70818;SDS011;58439;51.046;13.692;2023-03-14T01:19:08;4.30;;;2.10;;
70818;SDS011;58439;51.046;13.692;2023-03-14T01:21:39;3.95;;;1.83;;
70818;SDS011;58439;51.046;13.692;2023-03-14T01:24:10;3.58;;;2.05;;
70818;SDS011;58439;51.046;13.692;2023-03-14T01:30:50;3.78;;;2.40;;
70818;SDS011;58439;51.046;13.692;2023-03-14T01:33:17;3.85;;;2.33;;
70818;SDS011;58439;51.046;13.692;2023-03-14T01:35:51;3.92;;;2.88;;
70818;SDS011;58439;51.046;13.692;2023-03-14T01:38:19;4.30;;;2.90;;
70818;SDS011;58439;51.046;13.692;2023-03-14T01:40:49;4.75;;;2.78;;
70818;SDS011;58439;51.046;13.692;2023-03-14T01:43:18;4.60;;;2.95;;
70818;SDS011;58439;51.046;13.692;2023-03-14T01:46:12;4.30;;;2.50;;
70818;SDS011;58439;51.046;13.692;2023-03-14T01:58:12;4.70;;;3.17;;
70818;SDS011;58439;51.046;13.692;2023-03-14T02:06:06;4.72;;;3.13;;
70818;SDS011;58439;51.046;13.692;2023-03-14T02:10:40;2.80;;;1.92;;
70818;SDS011;58439;51.046;13.692;2023-03-14T02:17:40;1.98;;;1.13;;
70818;SDS011;58439;51.046;13.692;2023-03-14T02:28:46;1.48;;;0.90;;
70818;SDS011;58439;51.046;13.692;2023-03-14T02:32:11;1.42;;;0.80;;
70818;SDS011;58439;51.046;13.692;2023-03-14T02:36:21;1.17;;;0.80;;
70818;SDS011;58439;51.046;13.692;2023-03-14T02:41:03;1.13;;;0.75;;
70818;SDS011;58439;51.046;13.692;2023-03-14T02:44:15;1.13;;;0.70;;
70818;SDS011;58439;51.046;13.692;2023-03-14T02:46:51;1.23;;;0.80;;
70818;SDS011;58439;51.046;13.692;2023-03-14T02:50:05;1.63;;;0.60;;
70818;SDS011;58439;51.046;13.692;2023-03-14T03:17:27;0.47;;;0.43;;
70818;SDS011;58439;51.046;13.692;2023-03-14T03:29:20;1.17;;;0.60;;
70818;SDS011;58439;51.046;13.692;2023-03-14T03:32:37;1.02;;;0.47;;
70818;SDS011;58439;51.046;13.692;2023-03-14T03:35:44;1.30;;;0.65;;
70818;SDS011;58439;51.046;13.692;2023-03-14T03:39:31;0.80;;;0.40;;
70818;SDS011;58439;51.046;13.692;2023-03-14T03:42:50;0.88;;;0.50;;
70818;SDS011;58439;51.046;13.692;2023-03-14T03:46:24;0.65;;;0.40;;
70818;SDS011;58439;51.046;13.692;2023-03-14T03:49:30;0.73;;;0.50;;
70818;SDS011;58439;51.046;13.692;2023-03-14T03:57:52;0.63;;;0.43;;
70818;SDS011;58439;51.046;13.692;2023-03-14T04:00:54;0.95;;;0.50;;
70818;SDS011;58439;51.046;13.692;2023-03-14T04:04:18;0.40;;;0.40;;
70818;SDS011;58439;51.046;13.692;2023-03-14T04:06:59;0.60;;;0.30;;
70818;SDS011;58439;51.046;13.692;2023-03-14T04:13:40;1.05;;;0.60;;
70818;SDS011;58439;51.046;13.692;2023-03-14T04:29:24;1.38;;;0.47;;
70818;SDS011;58439;51.046;13.692;2023-03-14T04:31:55;0.70;;;0.45;;
70818;SDS011;58439;51.046;13.692;2023-03-14T04:34:24;3.35;;;1.02;;
70818;SDS011;58439;51.046;13.692;2023-03-14T04:36:55;1.35;;;0.80;;
70818;SDS011;58439;51.046;13.692;2023-03-14T04:39:30;3.80;;;0.55;;
70818;SDS011;58439;51.046;13.692;2023-03-14T04:42:06;1.95;;;0.63;;
70818;SDS011;58439;51.046;13.692;2023-03-14T04:44:36;1.63;;;0.70;;
70818;SDS011;58439;51.046;13.692;2023-03-14T04:47:10;2.38;;;0.80;;
70818;SDS011;58439;51.046;13.692;2023-03-14T04:49:40;2.15;;;0.70;;
70818;SDS011;58439;51.046;13.692;2023-03-14T05:01:32;3.20;;;0.70;;
70818;SDS011;58439;51.046;13.692;2023-03-14T05:07:08;2.92;;;0.90;;
70818;SDS011;58439;51.046;13.692;2023-03-14T05:09:58;3.63;;;0.95;;
70818;SDS011;58439;51.046;13.692;2023-03-14T05:12:44;3.45;;;1.00;;
70818;SDS011;58439;51.046;13.692;2023-03-14T05:16:08;2.20;;;0.85;;
70818;SDS011;58439;51.046;13.692;2023-03-14T05:18:45;1.80;;;0.80;;
70818;SDS011;58439;51.046;13.692;2023-03-14T05:22:09;2.83;;;0.70;;
70818;SDS011;58439;51.046;13.692;2023-03-14T05:25:00;5.07;;;1.05;;
70818;SDS011;58439;51.046;13.692;2023-03-14T05:30:51;2.63;;;1.00;;
70818;SDS011;58439;51.046;13.692;2023-03-14T05:33:31;7.15;;;1.10;;
70818;SDS011;58439;51.046;13.692;2023-03-14T05:39:36;6.32;;;1.48;;
70818;SDS011;58439;51.046;13.692;2023-03-14T05:42:34;5.65;;;0.90;;
70818;SDS011;58439;51.046;13.692;2023-03-14T05:45:16;4.65;;;1.08;;
70818;SDS011;58439;51.046;13.692;2023-03-14T05:48:17;5.45;;;1.23;;
70818;SDS011;58439;51.046;13.692;2023-03-14T05:51:18;8.93;;;1.85;;
70818;SDS011;58439;51.046;13.692;2023-03-14T05:54:08;2.83;;;0.90;;
70818;SDS011;58439;51.046;13.692;2023-03-14T05:57:05;4.15;;;1.10;;
70818;SDS011;58439;51.046;13.692;2023-03-14T05:59:59;5.32;;;0.85;;
70818;SDS011;58439;51.046;13.692;2023-03-14T06:03:06;7.20;;;1.02;;
70818;SDS011;58439;51.046;13.692;2023-03-14T06:05:43;5.50;;;0.75;;
70818;SDS011;58439;51.046;13.692;2023-03-14T06:08:11;3.28;;;1.40;;
70818;SDS011;58439;51.046;13.692;2023-03-14T06:10:56;5.53;;;1.70;;
70818;SDS011;58439;51.046;13.692;2023-03-14T06:13:29;6.35;;;1.05;;
70818;SDS011;58439;51.046;13.692;2023-03-14T06:18:52;3.75;;;1.20;;
70818;SDS011;58439;51.046;13.692;2023-03-14T06:21:27;5.55;;;1.42;;
70818;SDS011;58439;51.046;13.692;2023-03-14T06:24:04;10.77;;;2.03;;
70818;SDS011;58439;51.046;13.692;2023-03-14T06:26:38;6.03;;;0.60;;
70818;SDS011;58439;51.046;13.692;2023-03-14T06:29:08;3.22;;;1.05;;
70818;SDS011;58439;51.046;13.692;2023-03-14T06:31:38;4.50;;;1.30;;
70818;SDS011;58439;51.046;13.692;2023-03-14T06:34:09;5.07;;;1.23;;
70818;SDS011;58439;51.046;13.692;2023-03-14T06:40:28;7.60;;;1.63;;
70818;SDS011;58439;51.046;13.692;2023-03-14T06:43:36;9.80;;;1.10;;
70818;SDS011;58439;51.046;13.692;2023-03-14T06:46:06;8.07;;;1.25;;
70818;SDS011;58439;51.046;13.692;2023-03-14T06:48:36;8.88;;;1.70;;
70818;SDS011;58439;51.046;13.692;2023-03-14T06:54:05;6.45;;;1.50;;
70818;SDS011;58439;51.046;13.692;2023-03-14T06:59:31;9.13;;;1.40;;
70818;SDS011;58439;51.046;13.692;2023-03-14T07:02:02;7.88;;;1.52;;
70818;SDS011;58439;51.046;13.692;2023-03-14T07:07:38;7.65;;;1.20;;
70818;SDS011;58439;51.046;13.692;2023-03-14T07:13:24;7.07;;;1.23;;
70818;SDS011;58439;51.046;13.692;2023-03-14T07:16:00;7.25;;;1.02;;
70818;SDS011;58439;51.046;13.692;2023-03-14T07:22:39;7.35;;;1.55;;
70818;SDS011;58439;51.046;13.692;2023-03-14T07:25:08;5.53;;;1.30;;
70818;SDS011;58439;51.046;13.692;2023-03-14T07:31:25;8.93;;;1.48;;
70818;SDS011;58439;51.046;13.692;2023-03-14T07:33:58;4.75;;;0.98;;
70818;SDS011;58439;51.046;13.692;2023-03-14T07:41:02;3.80;;;1.20;;
70818;SDS011;58439;51.046;13.692;2023-03-14T07:44:05;4.78;;;1.15;;
70818;SDS011;58439;51.046;13.692;2023-03-14T07:47:16;7.18;;;1.25;;
70818;SDS011;58439;51.046;13.692;2023-03-14T07:50:06;6.53;;;1.55;;
70818;SDS011;58439;51.046;13.692;2023-03-14T07:53:55;5.00;;;1.23;;
70818;SDS011;58439;51.046;13.692;2023-03-14T07:57:13;2.85;;;0.98;;
70818;SDS011;58439;51.046;13.692;2023-03-14T08:00:31;4.43;;;1.20;;
70818;SDS011;58439;51.046;13.692;2023-03-14T08:03:17;7.80;;;1.88;;
70818;SDS011;58439;51.046;13.692;2023-03-14T08:06:38;8.27;;;1.70;;
70818;SDS011;58439;51.046;13.692;2023-03-14T08:09:37;9.15;;;1.70;;
70818;SDS011;58439;51.046;13.692;2023-03-14T08:12:51;6.65;;;1.48;;
70818;SDS011;58439;51.046;13.692;2023-03-14T08:18:05;2.20;;;0.90;;
70818;SDS011;58439;51.046;13.692;2023-03-14T08:28:57;5.70;;;0.90;;
70818;SDS011;58439;51.046;13.692;2023-03-14T08:31:30;5.07;;;0.98;;
70818;SDS011;58439;51.046;13.692;2023-03-14T08:35:07;2.20;;;0.98;;
70818;SDS011;58439;51.046;13.692;2023-03-14T08:37:48;6.80;;;0.77;;
70818;SDS011;58439;51.046;13.692;2023-03-14T08:41:20;2.28;;;0.80;;
70818;SDS011;58439;51.046;13.692;2023-03-14T08:43:48;4.65;;;0.80;;
70818;SDS011;58439;51.046;13.692;2023-03-14T08:46:24;4.85;;;0.70;;
70818;SDS011;58439;51.046;13.692;2023-03-14T08:48:54;3.83;;;0.80;;
70818;SDS011;58439;51.046;13.692;2023-03-14T08:51:26;4.82;;;0.90;;
70818;SDS011;58439;51.046;13.692;2023-03-14T09:07:52;3.47;;;0.77;;
70818;SDS011;58439;51.046;13.692;2023-03-14T09:15:06;2.80;;;0.63;;
70818;SDS011;58439;51.046;13.692;2023-03-14T09:28:33;3.60;;;0.73;;
70818;SDS011;58439;51.046;13.692;2023-03-14T09:44:54;3.35;;;0.90;;
70818;SDS011;58439;51.046;13.692;2023-03-14T09:47:38;4.75;;;0.90;;
70818;SDS011;58439;51.046;13.692;2023-03-14T09:50:27;5.00;;;0.95;;
70818;SDS011;58439;51.046;13.692;2023-03-14T09:53:23;4.22;;;1.13;;
70818;SDS011;58439;51.046;13.692;2023-03-14T09:57:04;1.60;;;0.50;;
70818;SDS011;58439;51.046;13.692;2023-03-14T09:59:41;3.72;;;0.70;;
70818;SDS011;58439;51.046;13.692;2023-03-14T10:02:19;3.42;;;0.70;;
70818;SDS011;58439;51.046;13.692;2023-03-14T10:04:52;3.10;;;0.60;;
70818;SDS011;58439;51.046;13.692;2023-03-14T10:07:22;2.47;;;0.90;;
70818;SDS011;58439;51.046;13.692;2023-03-14T10:09:59;1.65;;;0.60;;
70818;SDS011;58439;51.046;13.692;2023-03-14T10:12:31;2.00;;;0.68;;
70818;SDS011;58439;51.046;13.692;2023-03-14T10:28:40;2.03;;;0.60;;
70818;SDS011;58439;51.046;13.692;2023-03-14T10:32:05;2.90;;;0.60;;
70818;SDS011;58439;51.046;13.692;2023-03-14T10:36:19;3.35;;;1.08;;
70818;SDS011;58439;51.046;13.692;2023-03-14T10:42:30;2.60;;;0.75;;
70818;SDS011;58439;51.046;13.692;2023-03-14T10:45:43;3.42;;;1.48;;
70818;SDS011;58439;51.046;13.692;2023-03-14T10:51:05;1.20;;;0.60;;
70818;SDS011;58439;51.046;13.692;2023-03-14T10:53:43;2.20;;;0.60;;
70818;SDS011;58439;51.046;13.692;2023-03-14T10:56:17;3.38;;;1.60;;
70818;SDS011;58439;51.046;13.692;2023-03-14T10:58:51;3.58;;;1.35;;
70818;SDS011;58439;51.046;13.692;2023-03-14T11:05:08;2.67;;;0.82;;
70818;SDS011;58439;51.046;13.692;2023-03-14T11:08:09;3.38;;;0.80;;
70818;SDS011;58439;51.046;13.692;2023-03-14T11:10:45;4.22;;;1.20;;
70818;SDS011;58439;51.046;13.692;2023-03-14T11:13:24;2.47;;;0.80;;
70818;SDS011;58439;51.046;13.692;2023-03-14T11:25:21;1.30;;;0.65;;
70818;SDS011;58439;51.046;13.692;2023-03-14T11:28:17;1.17;;;0.60;;
70818;SDS011;58439;51.046;13.692;2023-03-14T11:30:50;1.55;;;0.55;;
70818;SDS011;58439;51.046;13.692;2023-03-14T11:33:39;3.45;;;0.82;;
70818;SDS011;58439;51.046;13.692;2023-03-14T11:41:16;1.25;;;0.50;;
70818;SDS011;58439;51.046;13.692;2023-03-14T11:44:00;2.83;;;0.70;;
70818;SDS011;58439;51.046;13.692;2023-03-14T11:46:40;2.53;;;0.85;;
70818;SDS011;58439;51.046;13.692;2023-03-14T11:49:53;2.67;;;0.60;;
70818;SDS011;58439;51.046;13.692;2023-03-14T11:55:42;2.08;;;0.73;;
70818;SDS011;58439;51.046;13.692;2023-03-14T11:58:17;2.30;;;0.80;;
70818;SDS011;58439;51.046;13.692;2023-03-14T12:00:50;3.72;;;0.93;;
70818;SDS011;58439;51.046;13.692;2023-03-14T12:08:56;2.42;;;0.77;;
70818;SDS011;58439;51.046;13.692;2023-03-14T12:13:58;0.80;;;0.40;;
70818;SDS011;58439;51.046;13.692;2023-03-14T12:16:35;2.22;;;0.50;;
70818;SDS011;58439;51.046;13.692;2023-03-14T12:21:53;3.47;;;0.68;;
70818;SDS011;58439;51.046;13.692;2023-03-14T12:24:27;6.47;;;0.98;;
70818;SDS011;58439;51.046;13.692;2023-03-14T12:27:01;2.65;;;0.70;;
70818;SDS011;58439;51.046;13.692;2023-03-14T12:29:31;0.90;;;0.47;;
70818;SDS011;58439;51.046;13.692;2023-03-14T12:34:52;1.65;;;0.50;;
70818;SDS011;58439;51.046;13.692;2023-03-14T12:37:32;4.35;;;1.00;;
70818;SDS011;58439;51.046;13.692;2023-03-14T12:40:33;2.20;;;0.40;;
70818;SDS011;58439;51.046;13.692;2023-03-14T12:43:23;1.55;;;0.40;;
70818;SDS011;58439;51.046;13.692;2023-03-14T12:51:29;0.75;;;0.30;;
70818;SDS011;58439;51.046;13.692;2023-03-14T12:56:51;0.40;;;0.25;;
70818;SDS011;58439;51.046;13.692;2023-03-14T13:02:41;1.15;;;0.40;;
70818;SDS011;58439;51.046;13.692;2023-03-14T13:05:25;0.77;;;0.40;;
70818;SDS011;58439;51.046;13.692;2023-03-14T13:10:28;0.32;;;0.20;;
70818;SDS011;58439;51.046;13.692;2023-03-14T13:13:20;2.13;;;0.60;;
70818;SDS011;58439;51.046;13.692;2023-03-14T13:15:59;2.50;;;0.43;;
70818;SDS011;58439;51.046;13.692;2023-03-14T13:18:46;0.30;;;0.30;;
70818;SDS011;58439;51.046;13.692;2023-03-14T13:21:34;0.68;;;0.40;;
70818;SDS011;58439;51.046;13.692;2023-03-14T13:24:06;0.88;;;0.35;;
70818;SDS011;58439;51.046;13.692;2023-03-14T13:27:40;0.30;;;0.30;;
70818;SDS011;58439;51.046;13.692;2023-03-14T13:30:16;1.35;;;0.40;;
70818;SDS011;58439;51.046;13.692;2023-03-14T13:32:49;1.25;;;0.30;;
70818;SDS011;58439;51.046;13.692;2023-03-14T13:37:54;0.57;;;0.30;;
70818;SDS011;58439;51.046;13.692;2023-03-14T13:40:43;1.58;;;0.40;;
70818;SDS011;58439;51.046;13.692;2023-03-14T13:43:14;1.90;;;0.35;;
70818;SDS011;58439;51.046;13.692;2023-03-14T13:45:55;4.63;;;0.50;;
70818;SDS011;58439;51.046;13.692;2023-03-14T13:48:51;1.85;;;0.50;;
70818;SDS011;58439;51.046;13.692;2023-03-14T13:51:24;0.98;;;0.57;;
70818;SDS011;58439;51.046;13.692;2023-03-14T13:53:58;0.77;;;0.20;;
70818;SDS011;58439;51.046;13.692;2023-03-14T13:57:09;1.65;;;0.65;;
70818;SDS011;58439;51.046;13.692;2023-03-14T14:00:23;2.25;;;0.50;;
70818;SDS011;58439;51.046;13.692;2023-03-14T14:03:13;1.88;;;0.60;;
70818;SDS011;58439;51.046;13.692;2023-03-14T14:05:41;0.93;;;0.30;;
70818;SDS011;58439;51.046;13.692;2023-03-14T14:08:11;0.43;;;0.20;;
70818;SDS011;58439;51.046;13.692;2023-03-14T14:10:39;1.27;;;0.40;;
70818;SDS011;58439;51.046;13.692;2023-03-14T14:13:11;1.27;;;0.60;;
70818;SDS011;58439;51.046;13.692;2023-03-14T14:16:09;1.20;;;0.55;;
70818;SDS011;58439;51.046;13.692;2023-03-14T14:18:37;0.38;;;0.30;;
70818;SDS011;58439;51.046;13.692;2023-03-14T14:21:05;0.85;;;0.30;;
70818;SDS011;58439;51.046;13.692;2023-03-14T14:23:36;0.65;;;0.38;;
70818;SDS011;58439;51.046;13.692;2023-03-14T14:26:15;0.52;;;0.30;;
70818;SDS011;58439;51.046;13.692;2023-03-14T14:31:33;1.08;;;0.40;;
70818;SDS011;58439;51.046;13.692;2023-03-14T14:40:10;0.30;;;0.30;;
70818;SDS011;58439;51.046;13.692;2023-03-14T14:46:10;0.52;;;0.30;;
70818;SDS011;58439;51.046;13.692;2023-03-14T14:48:47;0.45;;;0.20;;
70818;SDS011;58439;51.046;13.692;2023-03-14T14:51:25;1.55;;;0.32;;
70818;SDS011;58439;51.046;13.692;2023-03-14T14:54:32;0.30;;;0.20;;
70818;SDS011;58439;51.046;13.692;2023-03-14T14:57:02;1.02;;;0.40;;
70818;SDS011;58439;51.046;13.692;2023-03-14T15:08:34;0.73;;;0.40;;
70818;SDS011;58439;51.046;13.692;2023-03-14T15:11:05;0.60;;;0.38;;
70818;SDS011;58439;51.046;13.692;2023-03-14T15:13:32;0.20;;;0.20;;
70818;SDS011;58439;51.046;13.692;2023-03-14T15:16:02;1.13;;;0.35;;
70818;SDS011;58439;51.046;13.692;2023-03-14T15:18:29;0.90;;;0.32;;
70818;SDS011;58439;51.046;13.692;2023-03-14T15:20:57;1.27;;;0.57;;
70818;SDS011;58439;51.046;13.692;2023-03-14T15:23:28;0.30;;;0.30;;
70818;SDS011;58439;51.046;13.692;2023-03-14T15:26:13;1.00;;;0.40;;
70818;SDS011;58439;51.046;13.692;2023-03-14T15:31:17;0.95;;;0.45;;
70818;SDS011;58439;51.046;13.692;2023-03-14T15:33:59;0.98;;;0.45;;
70818;SDS011;58439;51.046;13.692;2023-03-14T15:36:28;1.83;;;0.77;;
70818;SDS011;58439;51.046;13.692;2023-03-14T15:39:01;3.55;;;0.30;;
70818;SDS011;58439;51.046;13.692;2023-03-14T15:41:32;0.93;;;0.33;;
70818;SDS011;58439;51.046;13.692;2023-03-14T15:44:00;0.98;;;0.60;;
70818;SDS011;58439;51.046;13.692;2023-03-14T15:46:28;1.48;;;0.55;;
70818;SDS011;58439;51.046;13.692;2023-03-14T15:48:57;1.45;;;0.60;;
70818;SDS011;58439;51.046;13.692;2023-03-14T15:51:27;1.88;;;0.40;;
70818;SDS011;58439;51.046;13.692;2023-03-14T15:53:55;1.65;;;0.50;;
70818;SDS011;58439;51.046;13.692;2023-03-14T15:56:26;0.75;;;0.40;;
70818;SDS011;58439;51.046;13.692;2023-03-14T15:58:58;1.75;;;0.50;;
70818;SDS011;58439;51.046;13.692;2023-03-14T16:01:26;0.50;;;0.38;;
70818;SDS011;58439;51.046;13.692;2023-03-14T16:03:53;1.25;;;0.40;;
70818;SDS011;58439;51.046;13.692;2023-03-14T16:06:24;2.70;;;0.52;;
70818;SDS011;58439;51.046;13.692;2023-03-14T16:08:53;1.10;;;0.50;;
70818;SDS011;58439;51.046;13.692;2023-03-14T16:11:21;2.05;;;0.30;;
70818;SDS011;58439;51.046;13.692;2023-03-14T16:13:50;0.90;;;0.50;;
70818;SDS011;58439;51.046;13.692;2023-03-14T16:16:19;2.10;;;0.40;;
70818;SDS011;58439;51.046;13.692;2023-03-14T16:18:47;5.05;;;0.60;;
70818;SDS011;58439;51.046;13.692;2023-03-14T16:21:18;3.08;;;0.60;;
70818;SDS011;58439;51.046;13.692;2023-03-14T16:23:47;1.92;;;0.40;;
70818;SDS011;58439;51.046;13.692;2023-03-14T16:26:19;0.70;;;0.50;;
70818;SDS011;58439;51.046;13.692;2023-03-14T16:28:47;1.02;;;0.40;;
70818;SDS011;58439;51.046;13.692;2023-03-14T16:31:16;2.70;;;0.77;;
70818;SDS011;58439;51.046;13.692;2023-03-14T16:33:47;1.85;;;0.88;;
70818;SDS011;58439;51.046;13.692;2023-03-14T16:36:15;2.10;;;0.40;;
70818;SDS011;58439;51.046;13.692;2023-03-14T16:38:43;1.17;;;0.40;;
70818;SDS011;58439;51.046;13.692;2023-03-14T16:41:13;4.00;;;0.47;;
70818;SDS011;58439;51.046;13.692;2023-03-14T16:43:44;4.50;;;0.53;;
70818;SDS011;58439;51.046;13.692;2023-03-14T16:46:17;1.02;;;0.30;;
70818;SDS011;58439;51.046;13.692;2023-03-14T16:48:48;1.75;;;0.47;;
70818;SDS011;58439;51.046;13.692;2023-03-14T16:51:15;0.30;;;0.30;;
70818;SDS011;58439;51.046;13.692;2023-03-14T16:53:43;2.72;;;0.60;;
70818;SDS011;58439;51.046;13.692;2023-03-14T16:56:11;3.63;;;0.43;;
70818;SDS011;58439;51.046;13.692;2023-03-14T16:58:39;1.75;;;0.45;;
70818;SDS011;58439;51.046;13.692;2023-03-14T17:01:07;1.40;;;0.50;;
70818;SDS011;58439;51.046;13.692;2023-03-14T17:03:41;1.70;;;0.77;;
70818;SDS011;58439;51.046;13.692;2023-03-14T17:06:14;1.33;;;0.50;;
70818;SDS011;58439;51.046;13.692;2023-03-14T17:08:55;1.88;;;0.40;;
70818;SDS011;58439;51.046;13.692;2023-03-14T17:11:23;1.52;;;0.68;;
70818;SDS011;58439;51.046;13.692;2023-03-14T17:13:51;1.85;;;0.80;;
70818;SDS011;58439;51.046;13.692;2023-03-14T17:16:18;1.05;;;0.60;;
70818;SDS011;58439;51.046;13.692;2023-03-14T17:18:49;2.53;;;0.60;;
70818;SDS011;58439;51.046;13.692;2023-03-14T17:21:20;1.17;;;0.70;;
70818;SDS011;58439;51.046;13.692;2023-03-14T17:26:44;1.88;;;0.60;;
70818;SDS011;58439;51.046;13.692;2023-03-14T17:29:11;1.20;;;0.80;;
70818;SDS011;58439;51.046;13.692;2023-03-14T17:31:41;1.10;;;0.60;;
70818;SDS011;58439;51.046;13.692;2023-03-14T17:34:09;0.30;;;0.30;;
70818;SDS011;58439;51.046;13.692;2023-03-14T17:36:37;0.57;;;0.45;;
70818;SDS011;58439;51.046;13.692;2023-03-14T17:39:04;2.05;;;0.30;;
70818;SDS011;58439;51.046;13.692;2023-03-14T17:41:34;1.20;;;0.80;;
70818;SDS011;58439;51.046;13.692;2023-03-14T17:44:02;0.57;;;0.40;;
70818;SDS011;58439;51.046;13.692;2023-03-14T17:46:29;0.30;;;0.30;;
70818;SDS011;58439;51.046;13.692;2023-03-14T17:48:57;0.50;;;0.35;;
70818;SDS011;58439;51.046;13.692;2023-03-14T17:51:24;2.08;;;0.70;;
70818;SDS011;58439;51.046;13.692;2023-03-14T17:53:52;0.93;;;0.50;;
70818;SDS011;58439;51.046;13.692;2023-03-14T17:56:19;1.55;;;0.50;;
70818;SDS011;58439;51.046;13.692;2023-03-14T17:58:46;0.60;;;0.55;;
70818;SDS011;58439;51.046;13.692;2023-03-14T18:01:16;2.42;;;0.70;;
70818;SDS011;58439;51.046;13.692;2023-03-14T18:04:26;0.85;;;0.50;;
70818;SDS011;58439;51.046;13.692;2023-03-14T18:06:53;8.30;;;0.98;;
70818;SDS011;58439;51.046;13.692;2023-03-14T18:09:20;3.47;;;0.50;;
70818;SDS011;58439;51.046;13.692;2023-03-14T18:11:47;3.58;;;1.30;;
70818;SDS011;58439;51.046;13.692;2023-03-14T18:14:27;7.55;;;1.40;;
70818;SDS011;58439;51.046;13.692;2023-03-14T18:16:55;5.95;;;1.00;;
70818;SDS011;58439;51.046;13.692;2023-03-14T18:19:23;3.03;;;0.80;;
70818;SDS011;58439;51.046;13.692;2023-03-14T18:22:47;7.15;;;1.42;;
70818;SDS011;58439;51.046;13.692;2023-03-14T18:25:15;4.28;;;1.30;;
70818;SDS011;58439;51.046;13.692;2023-03-14T18:27:45;4.05;;;1.67;;
70818;SDS011;58439;51.046;13.692;2023-03-14T18:30:12;2.22;;;0.98;;
70818;SDS011;58439;51.046;13.692;2023-03-14T18:32:43;8.48;;;2.67;;
70818;SDS011;58439;51.046;13.692;2023-03-14T18:35:10;7.05;;;2.05;;
70818;SDS011;58439;51.046;13.692;2023-03-14T18:37:38;4.90;;;1.90;;
70818;SDS011;58439;51.046;13.692;2023-03-14T18:40:05;7.95;;;1.70;;
70818;SDS011;58439;51.046;13.692;2023-03-14T18:42:35;7.22;;;1.92;;
70818;SDS011;58439;51.046;13.692;2023-03-14T18:45:03;5.90;;;1.20;;
70818;SDS011;58439;51.046;13.692;2023-03-14T18:47:32;6.28;;;1.30;;
70818;SDS011;58439;51.046;13.692;2023-03-14T18:50:03;5.80;;;1.35;;
70818;SDS011;58439;51.046;13.692;2023-03-14T18:53:20;2.65;;;1.38;;
70818;SDS011;58439;51.046;13.692;2023-03-14T18:55:48;5.72;;;2.33;;
70818;SDS011;58439;51.046;13.692;2023-03-14T18:58:15;5.35;;;1.77;;
70818;SDS011;58439;51.046;13.692;2023-03-14T19:00:48;7.38;;;1.90;;
70818;SDS011;58439;51.046;13.692;2023-03-14T19:03:15;7.53;;;2.00;;
70818;SDS011;58439;51.046;13.692;2023-03-14T19:05:42;7.90;;;1.70;;
70818;SDS011;58439;51.046;13.692;2023-03-14T19:08:10;2.58;;;1.00;;
70818;SDS011;58439;51.046;13.692;2023-03-14T19:10:40;5.28;;;1.80;;
70818;SDS011;58439;51.046;13.692;2023-03-14T19:13:08;3.85;;;1.33;;
70818;SDS011;58439;51.046;13.692;2023-03-14T19:15:37;5.30;;;1.30;;
70818;SDS011;58439;51.046;13.692;2023-03-14T19:18:07;6.85;;;2.00;;
70818;SDS011;58439;51.046;13.692;2023-03-14T19:20:37;12.93;;;2.63;;
70818;SDS011;58439;51.046;13.692;2023-03-14T19:23:07;4.63;;;1.85;;
70818;SDS011;58439;51.046;13.692;2023-03-14T19:25:34;5.97;;;1.40;;
70818;SDS011;58439;51.046;13.692;2023-03-14T19:28:18;6.85;;;1.73;;
70818;SDS011;58439;51.046;13.692;2023-03-14T19:31:16;9.55;;;2.40;;
70818;SDS011;58439;51.046;13.692;2023-03-14T19:33:44;9.68;;;1.92;;
70818;SDS011;58439;51.046;13.692;2023-03-14T19:36:46;9.05;;;2.40;;
70818;SDS011;58439;51.046;13.692;2023-03-14T19:39:06;14.40;;;1.90;;
70818;SDS011;58439;51.046;13.692;2023-03-14T19:41:33;19.70;;;2.58;;
70818;SDS011;58439;51.046;13.692;2023-03-14T19:44:01;13.23;;;2.10;;
70818;SDS011;58439;51.046;13.692;2023-03-14T19:46:28;13.55;;;2.30;;
70818;SDS011;58439;51.046;13.692;2023-03-14T19:48:59;15.68;;;2.22;;
70818;SDS011;58439;51.046;13.692;2023-03-14T19:51:27;15.55;;;2.55;;
70818;SDS011;58439;51.046;13.692;2023-03-14T19:53:58;5.20;;;1.80;;
70818;SDS011;58439;51.046;13.692;2023-03-14T19:56:29;12.57;;;2.40;;
70818;SDS011;58439;51.046;13.692;2023-03-14T19:58:57;16.33;;;3.15;;
70818;SDS011;58439;51.046;13.692;2023-03-14T20:01:29;4.43;;;1.35;;
70818;SDS011;58439;51.046;13.692;2023-03-14T20:05:02;8.68;;;1.52;;
70818;SDS011;58439;51.046;13.692;2023-03-14T20:07:35;10.10;;;2.42;;
70818;SDS011;58439;51.046;13.692;2023-03-14T20:10:04;9.95;;;1.60;;
70818;SDS011;58439;51.046;13.692;2023-03-14T20:12:34;15.95;;;2.80;;
70818;SDS011;58439;51.046;13.692;2023-03-14T20:15:01;11.73;;;2.17;;
70818;SDS011;58439;51.046;13.692;2023-03-14T20:17:29;5.25;;;1.80;;
70818;SDS011;58439;51.046;13.692;2023-03-14T20:19:58;21.70;;;2.67;;
70818;SDS011;58439;51.046;13.692;2023-03-14T20:22:25;15.43;;;2.28;;
70818;SDS011;58439;51.046;13.692;2023-03-14T20:24:52;12.93;;;2.42;;
70818;SDS011;58439;51.046;13.692;2023-03-14T20:27:20;11.35;;;2.28;;
70818;SDS011;58439;51.046;13.692;2023-03-14T20:29:47;8.55;;;2.47;;
70818;SDS011;58439;51.046;13.692;2023-03-14T20:32:15;16.67;;;3.00;;
70818;SDS011;58439;51.046;13.692;2023-03-14T20:34:44;16.83;;;2.85;;
70818;SDS011;58439;51.046;13.692;2023-03-14T20:37:12;11.48;;;2.00;;
70818;SDS011;58439;51.046;13.692;2023-03-14T20:43:15;15.95;;;2.47;;
70818;SDS011;58439;51.046;13.692;2023-03-14T20:45:43;13.80;;;2.28;;
70818;SDS011;58439;51.046;13.692;2023-03-14T20:48:17;13.95;;;2.50;;
70818;SDS011;58439;51.046;13.692;2023-03-14T20:50:45;17.02;;;2.38;;
70818;SDS011;58439;51.046;13.692;2023-03-14T20:53:13;12.68;;;2.13;;
70818;SDS011;58439;51.046;13.692;2023-03-14T20:55:42;17.30;;;2.88;;
70818;SDS011;58439;51.046;13.692;2023-03-14T20:59:13;8.85;;;1.63;;